createdAt,value
2022-08-30T00:01:46.739Z,16.30
2022-08-30T00:03:52.127Z,16.20
2022-08-30T00:05:56.339Z,16.20
2022-08-30T00:07:59.895Z,16.20
2022-08-30T00:10:03.832Z,16.10
2022-08-30T00:12:06.667Z,16.10
2022-08-30T00:14:09.266Z,16.10
2022-08-30T00:16:12.536Z,16.00
2022-08-30T00:18:18.236Z,16.00
2022-08-30T00:20:25.907Z,16.00
2022-08-30T00:22:28.485Z,16.00
2022-08-30T00:24:31.107Z,16.00
2022-08-30T00:26:33.670Z,16.00
2022-08-30T00:28:37.421Z,16.00
2022-08-30T00:30:40.720Z,16.10
2022-08-30T00:32:43.724Z,16.10
2022-08-30T00:34:46.301Z,16.10
2022-08-30T00:36:48.961Z,16.10
2022-08-30T00:38:51.517Z,16.10
2022-08-30T00:40:54.307Z,16.00
2022-08-30T00:42:59.943Z,16.00
2022-08-30T00:45:14.827Z,15.90
2022-08-30T00:47:18.470Z,15.90
2022-08-30T00:49:21.085Z,15.90
2022-08-30T00:51:26.056Z,15.90
2022-08-30T00:53:35.047Z,15.90
2022-08-30T00:55:38.988Z,15.80
2022-08-30T00:57:47.083Z,15.80
2022-08-30T00:59:51.003Z,15.70
2022-08-30T01:01:53.987Z,15.70
2022-08-30T01:03:56.856Z,15.70
2022-08-30T01:06:03.193Z,15.70
2022-08-30T01:08:06.310Z,15.70
2022-08-30T01:10:12.443Z,15.70
2022-08-30T01:12:15.021Z,15.70
2022-08-30T01:14:22.156Z,15.70
2022-08-30T01:16:32.573Z,15.80
2022-08-30T01:18:36.275Z,15.80
2022-08-30T01:21:40.296Z,15.80
2022-08-30T01:23:47.469Z,15.90
2022-08-30T01:25:50.854Z,15.90
2022-08-30T01:28:04.140Z,16.00
2022-08-30T01:30:08.284Z,16.00
2022-08-30T01:32:29.178Z,16.00
2022-08-30T01:34:32.114Z,16.10
2022-08-30T01:36:37.745Z,16.20
2022-08-30T01:38:54.965Z,16.20
2022-08-30T01:41:35.082Z,16.20
2022-08-30T01:43:37.877Z,16.20
2022-08-30T01:45:41.130Z,16.20
2022-08-30T01:47:43.867Z,16.20
2022-08-30T01:49:48.078Z,16.20
2022-08-30T01:52:00.548Z,16.20
2022-08-30T01:54:04.545Z,16.20
2022-08-30T01:56:08.871Z,16.20
2022-08-30T01:58:11.751Z,16.20
2022-08-30T02:00:14.963Z,16.20
2022-08-30T02:02:21.916Z,16.10
2022-08-30T02:04:26.480Z,16.10
2022-08-30T02:06:29.368Z,16.10
2022-08-30T02:08:31.999Z,16.00
2022-08-30T02:10:37.230Z,16.00
2022-08-30T02:12:39.794Z,16.00
2022-08-30T02:14:42.526Z,15.90
2022-08-30T02:16:47.438Z,15.90
2022-08-30T02:18:52.281Z,15.90
2022-08-30T02:20:54.872Z,15.90
2022-08-30T02:23:01.159Z,15.80
2022-08-30T02:25:07.141Z,15.80
2022-08-30T02:27:21.035Z,15.90
2022-08-30T02:29:24.758Z,15.90
2022-08-30T02:31:27.337Z,15.90
2022-08-30T02:33:30.019Z,15.90
2022-08-30T02:35:32.645Z,15.90
2022-08-30T02:37:35.692Z,15.90
2022-08-30T02:39:38.312Z,15.90
2022-08-30T02:41:42.005Z,15.90
2022-08-30T02:43:44.640Z,15.90
2022-08-30T02:45:47.471Z,15.90
2022-08-30T02:47:50.258Z,15.90
2022-08-30T02:49:54.903Z,15.90
2022-08-30T02:51:57.671Z,15.90
2022-08-30T02:54:00.305Z,15.80
2022-08-30T02:56:03.298Z,15.80
2022-08-30T02:58:06.770Z,15.80
2022-08-30T03:00:13.429Z,15.90
2022-08-30T03:02:16.914Z,15.90
2022-08-30T03:04:26.668Z,15.90
2022-08-30T03:06:29.682Z,15.90
2022-08-30T03:08:33.036Z,15.90
2022-08-30T03:10:36.174Z,15.90
2022-08-30T03:12:38.775Z,15.90
2022-08-30T03:14:41.398Z,15.90
2022-08-30T03:16:43.984Z,16.00
2022-08-30T03:18:46.697Z,16.00
2022-08-30T03:20:54.524Z,16.00
2022-08-30T03:22:57.382Z,16.10
2022-08-30T03:25:01.498Z,16.10
2022-08-30T03:27:04.341Z,16.10
2022-08-30T03:29:07.196Z,16.10
2022-08-30T03:31:10.510Z,16.10
2022-08-30T03:33:13.340Z,16.10
2022-08-30T03:35:24.213Z,16.10
2022-08-30T03:37:27.853Z,16.10
2022-08-30T03:39:30.572Z,16.00
2022-08-30T03:41:33.797Z,16.00
2022-08-30T03:43:36.888Z,16.00
2022-08-30T03:45:39.826Z,16.00
2022-08-30T03:47:42.949Z,16.00
2022-08-30T03:49:45.597Z,16.00
2022-08-30T03:51:48.710Z,16.00
2022-08-30T03:53:51.352Z,16.00
2022-08-30T03:55:54.187Z,16.00
2022-08-30T03:57:58.040Z,16.00
2022-08-30T04:00:00.813Z,16.00
2022-08-30T04:02:14.107Z,16.00
2022-08-30T04:04:20.736Z,16.00
2022-08-30T04:06:24.399Z,16.00
2022-08-30T04:08:27.437Z,16.00
2022-08-30T04:10:30.063Z,16.00
2022-08-30T04:12:32.640Z,16.00
2022-08-30T04:14:35.247Z,16.00
2022-08-30T04:16:37.890Z,16.00
2022-08-30T04:18:40.641Z,16.00
2022-08-30T04:20:43.587Z,16.00
2022-08-30T04:22:46.500Z,16.00
2022-08-30T04:24:49.296Z,16.00
2022-08-30T04:26:51.951Z,15.90
2022-08-30T04:28:58.278Z,15.80
2022-08-30T04:31:01.738Z,15.70
2022-08-30T04:33:04.367Z,15.70
2022-08-30T04:35:07.667Z,15.70
2022-08-30T04:37:10.382Z,15.60
2022-08-30T04:39:13.237Z,15.60
2022-08-30T04:41:19.527Z,15.70
2022-08-30T04:43:22.166Z,15.60
2022-08-30T04:45:24.860Z,15.70
2022-08-30T04:47:27.617Z,15.70
2022-08-30T04:49:32.991Z,15.80
2022-08-30T04:51:35.590Z,15.80
2022-08-30T04:53:38.183Z,15.90
2022-08-30T04:55:42.105Z,16.00
2022-08-30T04:57:51.210Z,16.00
2022-08-30T04:59:54.642Z,16.10
2022-08-30T05:01:57.260Z,16.20
2022-08-30T05:04:00.326Z,16.20
2022-08-30T05:06:03.292Z,16.30
2022-08-30T05:08:11.600Z,16.50
2022-08-30T05:10:29.705Z,16.50
2022-08-30T05:12:32.314Z,16.60
2022-08-30T05:14:34.904Z,16.80
2022-08-30T05:16:37.827Z,16.90
2022-08-30T05:18:40.514Z,17.00
2022-08-30T05:20:43.872Z,17.20
2022-08-30T05:22:53.671Z,17.30
2022-08-30T05:24:56.959Z,17.40
2022-08-30T05:27:08.438Z,17.50
2022-08-30T05:29:11.028Z,17.60
2022-08-30T05:31:36.395Z,17.60
2022-08-30T05:33:39.096Z,17.60
2022-08-30T05:35:41.760Z,17.70
2022-08-30T05:37:44.814Z,17.70
2022-08-30T05:39:51.191Z,17.70
2022-08-30T05:41:57.836Z,17.80
2022-08-30T05:44:09.342Z,17.80
2022-08-30T05:46:14.801Z,17.90
2022-08-30T05:48:17.618Z,18.00
2022-08-30T05:50:20.629Z,18.00
2022-08-30T05:52:23.285Z,18.10
2022-08-30T05:54:25.870Z,18.20
2022-08-30T05:56:35.262Z,18.30
2022-08-30T05:58:38.522Z,18.40
2022-08-30T06:00:42.190Z,18.50
2022-08-30T06:02:45.005Z,18.60
2022-08-30T06:04:47.683Z,18.70
2022-08-30T06:06:50.290Z,18.90
2022-08-30T06:08:55.714Z,18.90
2022-08-30T06:10:58.433Z,19.00
2022-08-30T06:13:01.060Z,19.00
2022-08-30T06:15:04.180Z,19.10
2022-08-30T06:17:07.644Z,19.20
2022-08-30T06:19:15.070Z,19.20
2022-08-30T06:21:30.472Z,19.20
2022-08-30T06:23:33.387Z,19.30
2022-08-30T06:25:41.116Z,19.30
2022-08-30T06:27:44.929Z,19.40
2022-08-30T06:29:52.384Z,19.50
2022-08-30T06:31:57.456Z,19.60
2022-08-30T06:34:00.481Z,19.70
2022-08-30T06:36:12.815Z,19.80
2022-08-30T06:38:15.609Z,19.80
2022-08-30T06:40:21.793Z,19.80
2022-08-30T06:42:30.634Z,19.90
2022-08-30T06:44:33.356Z,20.00
2022-08-30T06:46:39.078Z,20.20
2022-08-30T06:48:57.216Z,20.30
2022-08-30T06:51:00.002Z,20.40
2022-08-30T06:53:05.930Z,20.50
2022-08-30T06:55:11.452Z,20.70
2022-08-30T06:57:14.175Z,20.90
2022-08-30T06:59:17.712Z,20.90
2022-08-30T07:01:25.959Z,21.00
2022-08-30T07:03:28.656Z,21.10
2022-08-30T07:05:31.461Z,21.10
2022-08-30T07:07:34.953Z,21.20
2022-08-30T07:09:43.274Z,21.30
2022-08-30T07:11:45.963Z,21.50
2022-08-30T07:13:48.581Z,21.60
2022-08-30T07:15:52.308Z,21.70
2022-08-30T07:18:13.329Z,21.70
2022-08-30T07:20:16.354Z,21.70
2022-08-30T07:22:18.938Z,21.70
2022-08-30T07:24:22.476Z,21.60
2022-08-30T07:26:55.476Z,21.70
2022-08-30T07:28:58.103Z,21.70
2022-08-30T07:31:01.013Z,21.60
2022-08-30T07:33:04.069Z,21.60
2022-08-30T07:35:07.069Z,21.60
2022-08-30T07:37:09.803Z,21.70
2022-08-30T07:39:20.892Z,21.70
2022-08-30T07:41:30.329Z,21.80
2022-08-30T07:43:34.077Z,21.90
2022-08-30T07:45:38.509Z,21.80
2022-08-30T07:47:41.579Z,21.70
2022-08-30T07:49:44.183Z,21.70
2022-08-30T07:51:46.767Z,21.80
2022-08-30T07:53:57.417Z,21.90
2022-08-30T07:56:00.033Z,22.10
2022-08-30T08:00:10.795Z,22.20
2022-08-30T08:02:16.421Z,22.30
2022-08-30T08:04:19.597Z,22.30
2022-08-30T08:06:23.574Z,22.30
2022-08-30T08:08:26.200Z,22.30
2022-08-30T08:10:28.875Z,22.20
2022-08-30T08:12:31.754Z,22.10
2022-08-30T08:14:34.943Z,22.00
2022-08-30T08:16:38.260Z,21.80
2022-08-30T08:18:40.828Z,21.80
2022-08-30T08:20:43.419Z,21.70
2022-08-30T08:22:46.087Z,21.80
2022-08-30T08:24:49.709Z,21.80
2022-08-30T08:26:52.293Z,21.90
2022-08-30T08:28:55.845Z,22.00
2022-08-30T08:30:58.424Z,22.10
2022-08-30T08:33:01.806Z,22.30
2022-08-30T08:35:04.911Z,22.50
2022-08-30T08:37:07.458Z,22.50
2022-08-30T08:39:10.363Z,22.50
2022-08-30T08:41:52.224Z,22.40
2022-08-30T08:43:54.928Z,22.30
2022-08-30T08:46:28.797Z,22.20
2022-08-30T08:49:22.569Z,22.20
2022-08-30T08:51:50.672Z,22.10
2022-08-30T08:54:34.302Z,21.90
2022-08-30T08:56:37.769Z,21.70
2022-08-30T08:59:08.420Z,21.60
2022-08-30T09:01:13.893Z,21.40
2022-08-30T09:03:18.957Z,21.30
2022-08-30T09:05:26.079Z,21.20
2022-08-30T09:07:37.460Z,21.20
2022-08-30T09:09:41.553Z,21.10
2022-08-30T09:11:44.555Z,21.00
2022-08-30T09:13:47.256Z,21.00
2022-08-30T09:18:19.348Z,21.10
2022-08-30T09:20:45.835Z,21.40
2022-08-30T09:22:48.484Z,21.70
2022-08-30T09:25:18.073Z,22.10
2022-08-30T09:27:40.026Z,22.40
2022-08-30T09:29:59.193Z,22.80
2022-08-30T09:32:22.572Z,23.10
2022-08-30T09:34:24.406Z,23.30
2022-08-30T09:36:32.910Z,23.30
2022-08-30T09:38:35.995Z,23.30
2022-08-30T09:40:51.991Z,23.30
2022-08-30T09:43:17.435Z,23.30
2022-08-30T09:45:36.559Z,23.30
2022-08-30T09:47:43.216Z,23.30
2022-08-30T09:49:45.884Z,23.20
2022-08-30T09:52:01.942Z,23.10
2022-08-30T09:55:20.731Z,23.10
2022-08-30T09:58:30.033Z,23.00
2022-08-30T10:00:41.365Z,23.00
2022-08-30T10:03:11.981Z,23.10
2022-08-30T10:05:58.685Z,23.20
2022-08-30T10:08:19.628Z,23.40
2022-08-30T10:10:34.294Z,23.60
2022-08-30T10:13:46.330Z,23.70
2022-08-30T10:15:58.782Z,23.90
2022-08-30T10:18:23.637Z,24.00
2022-08-30T10:20:31.998Z,24.10
2022-08-30T10:22:46.612Z,23.90
2022-08-30T10:25:00.786Z,23.90
2022-08-30T10:27:32.530Z,23.90
2022-08-30T10:30:05.966Z,24.00
2022-08-30T10:32:24.950Z,24.10
2022-08-30T10:34:49.669Z,24.10
2022-08-30T10:37:13.694Z,24.10
2022-08-30T10:39:32.341Z,24.30
2022-08-30T10:41:41.837Z,24.50
2022-08-30T10:43:53.850Z,24.60
2022-08-30T10:46:02.598Z,24.90
2022-08-30T10:48:20.423Z,25.00
2022-08-30T10:50:37.130Z,25.00
2022-08-30T10:52:53.282Z,24.90
2022-08-30T10:55:36.848Z,24.80
2022-08-30T10:58:31.842Z,24.60
2022-08-30T11:01:16.192Z,24.40
2022-08-30T11:03:42.989Z,24.30
2022-08-30T11:06:26.286Z,24.10
2022-08-30T11:09:09.352Z,24.10
2022-08-30T11:11:51.481Z,24.10
2022-08-30T11:13:57.253Z,24.10
2022-08-30T11:16:06.880Z,24.10
2022-08-30T11:18:09.489Z,24.10
2022-08-30T11:20:42.979Z,24.00
2022-08-30T11:23:25.628Z,23.90
2022-08-30T11:26:03.080Z,23.90
2022-08-30T11:28:06.449Z,23.80
2022-08-30T11:30:27.423Z,23.70
2022-08-30T11:33:08.340Z,23.70
2022-08-30T11:35:50.054Z,23.60
2022-08-30T11:37:52.667Z,23.40
2022-08-30T11:40:01.916Z,23.40
2022-08-30T11:42:31.818Z,23.40
2022-08-30T11:44:34.772Z,23.50
2022-08-30T11:46:41.533Z,23.50
2022-08-30T11:49:01.416Z,23.60
2022-08-30T11:51:18.418Z,23.60
2022-08-30T11:53:34.187Z,23.60
2022-08-30T11:56:33.491Z,23.60
2022-08-30T11:58:48.204Z,23.70
2022-08-30T12:01:50.252Z,23.70
2022-08-30T12:04:15.193Z,23.80
2022-08-30T12:06:40.456Z,23.80
2022-08-30T12:08:55.140Z,23.80
2022-08-30T12:11:10.933Z,23.70
2022-08-30T12:13:53.868Z,23.60
2022-08-30T12:16:05.272Z,23.60
2022-08-30T12:18:29.427Z,23.50
2022-08-30T12:20:47.984Z,23.40
2022-08-30T12:22:52.356Z,23.40
2022-08-30T12:24:55.475Z,23.30
2022-08-30T12:26:59.118Z,23.30
2022-08-30T12:29:19.503Z,23.20
2022-08-30T12:31:26.716Z,23.10
2022-08-30T12:33:41.475Z,23.10
2022-08-30T12:35:44.834Z,23.10
2022-08-30T12:38:05.430Z,23.30
2022-08-30T12:40:22.303Z,23.30
2022-08-30T12:42:30.738Z,23.40
2022-08-30T12:44:34.062Z,23.50
2022-08-30T12:46:37.080Z,23.50
2022-08-30T12:48:40.932Z,23.50
2022-08-30T12:50:54.895Z,23.60
2022-08-30T12:53:13.966Z,23.60
2022-08-30T12:55:22.771Z,23.60
2022-08-30T12:58:00.900Z,23.70
2022-08-30T13:00:08.369Z,23.80
2022-08-30T13:02:27.689Z,23.80
2022-08-30T13:04:30.375Z,23.90
2022-08-30T13:06:50.936Z,23.90
2022-08-30T13:08:54.596Z,23.90
2022-08-30T13:11:15.767Z,24.00
2022-08-30T13:13:44.332Z,24.10
2022-08-30T13:15:49.443Z,24.10
2022-08-30T13:18:30.113Z,24.10
2022-08-30T13:20:32.894Z,24.00
2022-08-30T13:22:41.818Z,23.90
2022-08-30T13:24:44.779Z,23.80
2022-08-30T13:26:48.109Z,23.70
2022-08-30T13:29:01.386Z,23.60
2022-08-30T13:31:04.025Z,23.60
2022-08-30T13:33:10.063Z,23.60
2022-08-30T13:35:13.365Z,23.70
2022-08-30T13:39:45.625Z,23.90
2022-08-30T13:41:49.804Z,24.00
2022-08-30T13:44:11.681Z,24.10
2022-08-30T13:46:17.161Z,24.10
2022-08-30T13:48:25.222Z,24.10
2022-08-30T13:50:32.526Z,24.00
2022-08-30T13:52:35.195Z,23.90
2022-08-30T13:54:37.799Z,23.90
2022-08-30T13:56:40.830Z,23.80
2022-08-30T13:58:43.499Z,23.80
2022-08-30T14:00:49.494Z,23.80
2022-08-30T14:02:57.608Z,23.70
2022-08-30T14:05:03.424Z,23.70
2022-08-30T14:07:20.015Z,23.70
2022-08-30T14:09:23.505Z,23.60
2022-08-30T14:11:26.243Z,23.50
2022-08-30T14:13:29.462Z,23.50
2022-08-30T14:15:33.415Z,23.40
2022-08-30T14:17:36.125Z,23.30
2022-08-30T14:19:38.790Z,23.30
2022-08-30T14:21:42.446Z,23.10
2022-08-30T14:23:45.731Z,23.10
2022-08-30T14:25:48.313Z,23.20
2022-08-30T14:27:53.392Z,23.20
2022-08-30T14:29:57.324Z,23.30
2022-08-30T14:32:00.542Z,23.40
2022-08-30T14:34:04.191Z,23.40
2022-08-30T14:36:15.277Z,23.60
2022-08-30T14:38:18.693Z,23.70
2022-08-30T14:40:21.987Z,23.90
2022-08-30T14:42:24.665Z,23.90
2022-08-30T14:44:27.803Z,24.10
2022-08-30T14:46:30.506Z,24.20
2022-08-30T14:49:50.937Z,24.30
2022-08-30T14:51:53.843Z,24.40
2022-08-30T14:53:56.426Z,24.50
2022-08-30T14:55:58.987Z,24.50
2022-08-30T14:58:02.142Z,24.60
2022-08-30T15:00:12.640Z,24.60
2022-08-30T15:02:15.191Z,24.50
2022-08-30T15:04:18.512Z,24.50
2022-08-30T15:06:26.340Z,24.40
2022-08-30T15:08:29.339Z,24.30
2022-08-30T15:10:32.029Z,24.20
2022-08-30T15:12:35.299Z,24.10
2022-08-30T15:14:37.952Z,24.00
2022-08-30T15:16:41.084Z,23.90
2022-08-30T15:18:44.016Z,23.90
2022-08-30T15:20:50.648Z,23.90
2022-08-30T15:22:53.525Z,23.90
2022-08-30T15:24:56.116Z,24.10
2022-08-30T15:27:00.521Z,24.10
2022-08-30T15:29:03.660Z,24.20
2022-08-30T15:31:09.604Z,24.30
2022-08-30T15:33:12.331Z,24.30
2022-08-30T15:35:15.019Z,24.40
2022-08-30T15:37:22.418Z,24.50
2022-08-30T15:39:25.122Z,24.50
2022-08-30T15:41:29.074Z,24.50
2022-08-30T15:43:32.492Z,24.50
2022-08-30T15:45:43.605Z,24.50
2022-08-30T15:47:46.584Z,24.40
2022-08-30T15:49:57.373Z,24.20
2022-08-30T15:52:04.671Z,24.10
2022-08-30T15:54:07.372Z,23.90
2022-08-30T15:56:21.103Z,23.80
2022-08-30T15:58:23.682Z,23.70
2022-08-30T16:00:26.265Z,23.70
2022-08-30T16:02:28.914Z,23.60
2022-08-30T16:04:31.745Z,23.50
2022-08-30T16:06:37.427Z,23.40
2022-08-30T16:08:41.002Z,23.20
2022-08-30T16:11:15.014Z,23.10
2022-08-30T16:13:18.198Z,23.00
2022-08-30T16:15:20.979Z,22.80
2022-08-30T16:17:24.148Z,22.70
2022-08-30T16:19:27.846Z,22.50
2022-08-30T16:21:34.162Z,22.50
2022-08-30T16:23:39.536Z,22.40
2022-08-30T16:25:42.148Z,22.30
2022-08-30T16:27:45.251Z,22.20
2022-08-30T16:29:47.949Z,22.20
2022-08-30T16:31:52.763Z,22.20
2022-08-30T16:34:02.373Z,22.10
2022-08-30T16:36:06.832Z,22.10
2022-08-30T16:38:09.416Z,22.10
2022-08-30T16:40:12.491Z,22.00
2022-08-30T16:42:20.864Z,22.10
2022-08-30T16:44:24.046Z,22.00
2022-08-30T16:46:33.391Z,22.00
2022-08-30T16:48:36.812Z,22.00
2022-08-30T16:50:43.869Z,21.90
2022-08-30T16:52:46.418Z,21.80
2022-08-30T16:54:52.253Z,21.80
2022-08-30T16:56:55.639Z,21.70
2022-08-30T16:59:01.975Z,21.70
2022-08-30T17:01:10.641Z,21.60
2022-08-30T17:03:13.778Z,21.60
2022-08-30T17:05:16.355Z,21.60
2022-08-30T17:07:22.342Z,21.50
2022-08-30T17:09:25.457Z,21.50
2022-08-30T17:11:28.234Z,21.40
2022-08-30T17:13:31.777Z,21.40
2022-08-30T17:15:35.831Z,21.40
2022-08-30T17:17:39.264Z,21.30
2022-08-30T17:20:15.890Z,21.30
2022-08-30T17:22:18.452Z,21.20
2022-08-30T17:24:24.633Z,21.20
2022-08-30T17:26:28.211Z,21.20
2022-08-30T17:28:31.101Z,21.10
2022-08-30T17:30:33.994Z,21.10
2022-08-30T17:32:36.629Z,21.10
2022-08-30T17:34:39.327Z,21.10
2022-08-30T17:36:42.388Z,21.10
2022-08-30T17:38:46.037Z,21.00
2022-08-30T17:40:48.872Z,21.00
2022-08-30T17:42:52.087Z,21.10
2022-08-30T17:44:55.147Z,21.10
2022-08-30T17:46:58.609Z,21.10
2022-08-30T17:49:03.131Z,21.10
2022-08-30T17:51:15.934Z,21.10
2022-08-30T17:53:18.597Z,21.10
2022-08-30T17:55:21.781Z,21.00
2022-08-30T17:57:25.088Z,21.00
2022-08-30T17:59:31.535Z,20.90
2022-08-30T18:01:35.439Z,20.90
2022-08-30T18:03:38.526Z,20.90
2022-08-30T18:06:05.316Z,20.90
2022-08-30T18:08:08.278Z,20.90
2022-08-30T18:10:13.421Z,20.90
2022-08-30T18:12:16.121Z,20.90
2022-08-30T18:14:26.296Z,20.90
2022-08-30T18:16:35.065Z,20.90
2022-08-30T18:19:09.532Z,20.80
2022-08-30T18:21:14.799Z,20.80
2022-08-30T18:23:17.455Z,20.70
2022-08-30T18:25:30.194Z,20.70
2022-08-30T18:27:32.841Z,20.70
2022-08-30T18:29:41.953Z,20.60
2022-08-30T18:31:45.585Z,20.60
2022-08-30T18:33:48.305Z,20.50
2022-08-30T18:35:57.204Z,20.50
2022-08-30T18:37:59.783Z,20.50
2022-08-30T18:40:03.042Z,20.40
2022-08-30T18:42:06.838Z,20.30
2022-08-30T18:44:26.743Z,20.20
2022-08-30T18:46:30.703Z,20.20
2022-08-30T18:48:35.012Z,20.20
2022-08-30T18:50:40.433Z,20.10
2022-08-30T18:52:45.074Z,20.00
2022-08-30T18:54:53.055Z,19.90
2022-08-30T18:56:56.058Z,19.90
2022-08-30T18:58:58.756Z,19.90
2022-08-30T19:01:02.439Z,19.80
2022-08-30T19:03:06.237Z,19.70
2022-08-30T19:05:08.983Z,19.70
2022-08-30T19:07:15.279Z,19.70
2022-08-30T19:09:17.855Z,19.60
2022-08-30T19:11:20.550Z,19.60
2022-08-30T19:13:23.629Z,19.50
2022-08-30T19:15:27.902Z,19.50
2022-08-30T19:17:30.794Z,19.50
2022-08-30T19:19:35.122Z,19.50
2022-08-30T19:21:39.643Z,19.40
2022-08-30T19:23:42.392Z,19.40
2022-08-30T19:25:45.310Z,19.40
2022-08-30T19:27:54.160Z,19.40
2022-08-30T19:29:57.017Z,19.40
2022-08-30T19:31:59.748Z,19.40
2022-08-30T19:34:10.045Z,19.30
2022-08-30T19:36:12.603Z,19.30
2022-08-30T19:38:15.864Z,19.20
2022-08-30T19:40:21.286Z,19.20
2022-08-30T19:42:23.993Z,19.10
2022-08-30T19:44:26.599Z,19.10
2022-08-30T19:46:30.450Z,19.10
2022-08-30T19:48:39.049Z,19.00
2022-08-30T19:50:48.927Z,19.10
2022-08-30T19:52:54.781Z,19.00
2022-08-30T19:55:02.793Z,19.00
2022-08-30T19:57:20.391Z,18.90
2022-08-30T19:59:23.164Z,18.90
2022-08-30T20:01:32.865Z,18.90
2022-08-30T20:03:38.204Z,18.80
2022-08-30T20:05:42.647Z,18.80
2022-08-30T20:07:51.158Z,18.80
2022-08-30T20:10:47.214Z,18.70
2022-08-30T20:12:50.256Z,18.70
2022-08-30T20:14:53.167Z,18.70
2022-08-30T20:16:59.436Z,18.70
2022-08-30T20:19:08.103Z,18.70
2022-08-30T20:21:13.933Z,18.60
2022-08-30T20:23:19.787Z,18.60
2022-08-30T20:25:25.257Z,18.70
2022-08-30T20:27:28.051Z,18.60
2022-08-30T20:29:30.838Z,18.50
2022-08-30T20:31:34.410Z,18.50
2022-08-30T20:33:38.170Z,18.40
2022-08-30T20:35:48.369Z,18.40
2022-08-30T20:37:51.910Z,18.40
2022-08-30T20:39:57.627Z,18.40
2022-08-30T20:42:00.269Z,18.30
2022-08-30T20:44:06.593Z,18.30
2022-08-30T20:46:19.630Z,18.20
2022-08-30T20:48:23.895Z,18.20
2022-08-30T20:50:53.678Z,18.20
2022-08-30T20:52:56.281Z,18.10
2022-08-30T20:54:58.843Z,18.10
2022-08-30T20:57:11.410Z,18.00
2022-08-30T20:59:14.977Z,18.00
2022-08-30T21:01:19.080Z,18.00
2022-08-30T21:03:29.677Z,17.90
2022-08-30T21:05:37.032Z,17.90
2022-08-30T21:07:41.072Z,17.80
2022-08-30T21:10:37.629Z,17.80
2022-08-30T21:12:40.260Z,17.80
2022-08-30T21:14:42.871Z,17.70
2022-08-30T21:16:45.532Z,17.70
2022-08-30T21:18:48.240Z,17.70
2022-08-30T21:20:50.909Z,17.70
2022-08-30T21:22:53.646Z,17.70
2022-08-30T21:24:56.370Z,17.70
2022-08-30T21:26:59.699Z,17.60
2022-08-30T21:29:02.338Z,17.60
2022-08-30T21:31:26.353Z,17.60
2022-08-30T21:33:28.989Z,17.60
2022-08-30T21:36:04.953Z,17.60
2022-08-30T21:38:08.965Z,17.60
2022-08-30T21:40:14.823Z,17.50
2022-08-30T21:42:18.393Z,17.60
2022-08-30T21:44:24.210Z,17.50
2022-08-30T21:46:29.474Z,17.60
2022-08-30T21:48:32.784Z,17.50
2022-08-30T21:50:42.190Z,17.50
2022-08-30T21:52:44.834Z,17.50
2022-08-30T21:54:48.610Z,17.40
2022-08-30T21:56:53.903Z,17.40
2022-08-30T21:58:56.783Z,17.40
2022-08-30T22:00:59.437Z,17.40
2022-08-30T22:03:02.111Z,17.50
2022-08-30T22:05:05.102Z,17.50
2022-08-30T22:07:33.120Z,17.60
2022-08-30T22:09:36.400Z,17.60
2022-08-30T22:11:39.084Z,17.60
2022-08-30T22:13:45.526Z,17.60
2022-08-30T22:15:50.712Z,17.60
2022-08-30T22:17:54.032Z,17.50
2022-08-30T22:19:56.635Z,17.60
2022-08-30T22:22:00.813Z,17.60
2022-08-30T22:24:04.915Z,17.50
2022-08-30T22:26:10.150Z,17.50
2022-08-30T22:29:03.606Z,17.40
2022-08-30T22:31:11.100Z,17.40
2022-08-30T22:33:16.221Z,17.40
2022-08-30T22:35:19.629Z,17.40
2022-08-30T22:37:22.235Z,17.30
2022-08-30T22:39:25.657Z,17.30
2022-08-30T22:41:31.639Z,17.20
2022-08-30T22:43:34.357Z,17.20
2022-08-30T22:45:38.245Z,17.20
2022-08-30T22:47:41.120Z,17.10
2022-08-30T22:49:43.876Z,17.10
2022-08-30T22:51:46.634Z,17.10
2022-08-30T22:53:50.205Z,17.00
2022-08-30T22:55:52.772Z,17.00
2022-08-30T22:57:55.396Z,17.00
2022-08-30T22:59:58.023Z,17.00
2022-08-30T23:02:00.888Z,17.00
2022-08-30T23:04:09.154Z,17.00
2022-08-30T23:06:11.763Z,17.00
2022-08-30T23:08:14.348Z,17.00
2022-08-30T23:10:17.362Z,17.00
2022-08-30T23:12:19.942Z,17.00
2022-08-30T23:14:23.315Z,17.10
2022-08-30T23:16:25.912Z,17.00
2022-08-30T23:18:28.517Z,17.00
2022-08-30T23:20:31.306Z,17.10
2022-08-30T23:22:34.007Z,17.10
2022-08-30T23:24:55.197Z,17.10
2022-08-30T23:27:17.126Z,17.00
2022-08-30T23:29:39.580Z,17.10
2022-08-30T23:32:02.576Z,17.10
2022-08-30T23:34:23.875Z,17.10
2022-08-30T23:36:44.892Z,17.10
2022-08-30T23:39:05.921Z,17.10
2022-08-30T23:41:32.223Z,17.20
2022-08-30T23:43:55.453Z,17.10
2022-08-30T23:46:19.611Z,17.10
2022-08-30T23:48:41.048Z,17.10
2022-08-30T23:51:12.013Z,17.00
2022-08-30T23:53:43.820Z,17.00
2022-08-30T23:56:05.176Z,17.00
2022-08-30T23:58:27.514Z,16.90
